Time;durP1;ratioP1;P1;durP2;ratioP2;P2;SDS_P1;SDS_P2;PMS_P1;PMS_P2;Temp;Humidity;BMP_temperature;BMP_pressure;BME280_temperature;BME280_humidity;BME280_pressure;Samples;Min_cycle;Max_cycle;Signal;HPM_P1;HPM_P2
2022/02/19 00:01:30;;;;;;;17.45;2.58;;;7.30;99.90;;;;;;5187684;22;20449;-71
2022/02/19 00:03:31;;;;;;;14.05;3.47;;;7.30;99.90;;;;;;5188541;22;20073;-71
2022/02/19 00:05:32;;;;;;;14.63;2.72;;;7.30;99.90;;;;;;5187837;22;20019;-71
2022/02/19 00:07:33;;;;;;;8.50;2.17;;;7.30;99.90;;;;;;5186020;22;20464;-71
2022/02/19 00:09:34;;;;;;;12.93;3.00;;;7.30;99.90;;;;;;5188516;22;20018;-71
2022/02/19 00:11:35;;;;;;;10.70;2.40;;;7.30;99.90;;;;;;5187444;22;20008;-71
2022/02/19 00:13:35;;;;;;;12.10;2.50;;;7.30;99.90;;;;;;5187555;22;20065;-71
2022/02/19 00:15:36;;;;;;;10.48;2.25;;;7.30;99.90;;;;;;5187991;22;20475;-71
2022/02/19 00:17:37;;;;;;;17.63;2.72;;;7.30;99.90;;;;;;5186542;22;20383;-71
2022/02/19 00:19:37;;;;;;;10.32;2.22;;;7.30;99.90;;;;;;5189228;22;20381;-71
2022/02/19 00:21:38;;;;;;;11.07;2.55;;;7.30;99.90;;;;;;5185032;22;20012;-71
2022/02/19 00:23:40;;;;;;;9.90;2.10;;;7.20;99.90;;;;;;5188482;22;20425;-71
2022/02/19 00:25:41;;;;;;;14.65;2.85;;;7.30;99.90;;;;;;5188154;22;20442;-71
2022/02/19 00:27:44;;;;;;;10.45;1.92;;;7.30;99.90;;;;;;5188674;22;20004;-71
2022/02/19 00:29:44;;;;;;;9.38;1.88;;;7.30;99.90;;;;;;5188328;22;20091;-71
2022/02/19 00:31:45;;;;;;;17.80;3.10;;;7.30;99.90;;;;;;5187321;22;20345;-71
2022/02/19 00:33:48;;;;;;;13.55;2.55;;;7.30;99.90;;;;;;5185495;22;20004;-71
2022/02/19 00:35:49;;;;;;;9.75;2.42;;;7.30;99.90;;;;;;5188646;22;20015;-71
2022/02/19 00:37:49;;;;;;;9.15;2.00;;;7.30;99.90;;;;;;5187462;22;20026;-71
2022/02/19 00:39:50;;;;;;;10.00;2.20;;;7.30;99.90;;;;;;5189454;22;20322;-71
2022/02/19 00:41:51;;;;;;;5.93;1.65;;;7.30;99.90;;;;;;5147189;22;20011;-71
2022/02/19 00:43:51;;;;;;;12.27;2.20;;;7.30;99.90;;;;;;5188066;22;20004;-71
2022/02/19 00:45:52;;;;;;;11.10;2.20;;;7.20;99.90;;;;;;5188720;22;20016;-71
2022/02/19 00:47:54;;;;;;;7.75;2.05;;;7.20;99.90;;;;;;5186380;22;20011;-71
2022/02/19 00:49:54;;;;;;;12.05;2.78;;;7.20;99.90;;;;;;5160814;23;20058;-71
2022/02/19 00:51:55;;;;;;;9.05;2.35;;;7.20;99.90;;;;;;5184311;22;20004;-71
2022/02/19 00:53:56;;;;;;;15.07;3.45;;;7.20;99.90;;;;;;5187911;22;20341;-71
2022/02/19 00:55:57;;;;;;;12.27;2.45;;;7.10;99.90;;;;;;5188465;22;20064;-71
2022/02/19 00:57:57;;;;;;;9.68;2.00;;;7.10;99.90;;;;;;5189025;22;20050;-71
2022/02/19 00:59:58;;;;;;;8.65;2.25;;;7.10;99.90;;;;;;5188289;22;20318;-71
2022/02/19 01:01:58;;;;;;;10.60;1.75;;;7.10;99.90;;;;;;5187599;22;20069;-71
2022/02/19 01:03:59;;;;;;;10.45;2.45;;;7.10;99.90;;;;;;5187595;22;20314;-71
2022/02/19 01:06:00;;;;;;;10.60;2.35;;;7.10;99.90;;;;;;5185168;22;20011;-71
2022/02/19 01:08:00;;;;;;;12.07;2.67;;;7.10;99.90;;;;;;5188592;22;20441;-71
2022/02/19 01:10:01;;;;;;;8.82;2.22;;;7.00;99.90;;;;;;5187920;22;20337;-71
2022/02/19 01:12:02;;;;;;;15.63;3.20;;;7.00;99.90;;;;;;5187129;22;20039;-71
2022/02/19 01:14:03;;;;;;;8.18;2.15;;;7.00;99.90;;;;;;5187124;22;20026;-71
2022/02/19 01:16:04;;;;;;;8.60;2.25;;;6.90;99.90;;;;;;5185872;22;20020;-71
2022/02/19 01:18:06;;;;;;;13.00;2.75;;;6.90;99.90;;;;;;5187860;22;20437;-71
2022/02/19 01:20:11;;;;;;;10.93;2.45;;;6.90;99.90;;;;;;5187048;22;20057;-71
2022/02/19 01:22:12;;;;;;;11.13;2.60;;;6.90;99.90;;;;;;5185379;22;20453;-71
2022/02/19 01:24:12;;;;;;;8.60;2.20;;;6.90;99.90;;;;;;5187676;22;20007;-71
2022/02/19 01:26:13;;;;;;;7.78;2.25;;;7.00;99.90;;;;;;5187353;22;20019;-71
2022/02/19 01:28:14;;;;;;;8.32;2.70;;;6.90;99.90;;;;;;5187943;22;20020;-71
2022/02/19 01:30:14;;;;;;;16.98;2.67;;;6.90;99.90;;;;;;5184827;22;20024;-71
2022/02/19 01:32:15;;;;;;;10.30;2.15;;;6.80;99.90;;;;;;5172709;22;20445;-71
2022/02/19 01:34:16;;;;;;;7.80;1.70;;;6.80;99.90;;;;;;5185223;22;20016;-71
2022/02/19 01:36:17;;;;;;;8.98;2.47;;;6.80;99.90;;;;;;5185888;22;20038;-71
2022/02/19 01:38:18;;;;;;;4.07;1.63;;;6.90;99.90;;;;;;5182889;22;20015;-71
2022/02/19 01:40:19;;;;;;;10.40;2.05;;;6.80;99.90;;;;;;5188055;22;20088;-71
2022/02/19 01:42:20;;;;;;;12.40;2.42;;;6.80;99.90;;;;;;5185195;22;20073;-71
2022/02/19 01:44:20;;;;;;;12.77;2.40;;;6.80;99.90;;;;;;5188323;22;20018;-71
2022/02/19 01:46:21;;;;;;;8.98;2.22;;;6.90;99.90;;;;;;5186891;22;20015;-71
2022/02/19 01:48:21;;;;;;;9.35;2.30;;;6.90;99.90;;;;;;5187977;22;20023;-71
2022/02/19 01:50:22;;;;;;;8.52;2.20;;;6.90;99.90;;;;;;5187765;22;20015;-71
2022/02/19 01:52:27;;;;;;;15.98;3.33;;;6.90;99.90;;;;;;5188926;22;20016;-71
2022/02/19 01:54:28;;;;;;;12.93;2.60;;;6.90;99.90;;;;;;5187296;22;20019;-71
2022/02/19 01:56:29;;;;;;;12.00;2.70;;;6.90;99.90;;;;;;5187809;22;20367;-71
2022/02/19 01:58:30;;;;;;;12.80;2.55;;;6.90;99.90;;;;;;5188611;22;20008;-71
2022/02/19 02:00:30;;;;;;;9.90;2.13;;;6.90;99.90;;;;;;5187038;22;20461;-72
2022/02/19 02:02:31;;;;;;;12.48;2.67;;;6.90;99.90;;;;;;5187549;22;20327;-71
2022/02/19 02:04:32;;;;;;;11.60;2.33;;;6.90;99.90;;;;;;5186950;22;20397;-71
2022/02/19 02:06:33;;;;;;;11.68;2.53;;;6.90;99.90;;;;;;5184874;22;20086;-71
2022/02/19 02:08:34;;;;;;;14.18;2.72;;;7.00;99.90;;;;;;5187560;22;20078;-71
2022/02/19 02:10:35;;;;;;;7.93;2.20;;;7.00;99.90;;;;;;5186838;22;20031;-71
2022/02/19 02:12:35;;;;;;;10.90;2.47;;;6.90;99.90;;;;;;5185396;22;20488;-71
2022/02/19 02:14:41;;;;;;;14.65;2.60;;;7.00;99.90;;;;;;5186042;22;20012;-71
2022/02/19 02:16:43;;;;;;;7.35;2.25;;;7.00;99.90;;;;;;5186637;22;20431;-71
2022/02/19 02:18:45;;;;;;;11.13;2.63;;;7.00;99.90;;;;;;5187784;22;20012;-71
2022/02/19 02:20:45;;;;;;;15.82;2.97;;;6.90;99.90;;;;;;5185086;22;20230;-71
2022/02/19 02:22:46;;;;;;;12.35;2.30;;;6.90;99.90;;;;;;5160062;23;20035;-71
2022/02/19 02:24:48;;;;;;;11.70;2.38;;;7.00;99.90;;;;;;5187238;22;20011;-71
2022/02/19 02:26:50;;;;;;;8.48;2.08;;;7.00;99.90;;;;;;5186007;22;20011;-71
2022/02/19 02:28:52;;;;;;;9.38;1.92;;;7.00;99.90;;;;;;5160360;23;20065;-71
2022/02/19 02:30:52;;;;;;;17.48;2.47;;;7.00;99.90;;;;;;5179911;22;20026;-71
2022/02/19 02:32:53;;;;;;;11.60;2.13;;;7.00;99.90;;;;;;5189664;22;20007;-71
2022/02/19 02:34:54;;;;;;;8.55;2.05;;;7.00;99.90;;;;;;5189869;22;20004;-71
2022/02/19 02:36:55;;;;;;;8.32;1.73;;;7.00;99.90;;;;;;5189635;22;20012;-71
2022/02/19 02:38:57;;;;;;;9.23;1.90;;;7.00;99.90;;;;;;5190017;22;20014;-71
2022/02/19 02:40:59;;;;;;;12.93;2.42;;;6.90;99.90;;;;;;5189114;22;20038;-71
2022/02/19 02:42:59;;;;;;;9.98;2.63;;;7.00;99.90;;;;;;5189121;22;20440;-71
2022/02/19 02:45:00;;;;;;;11.10;2.50;;;7.00;99.90;;;;;;5161894;23;20564;-71
2022/02/19 02:47:02;;;;;;;12.52;2.60;;;7.00;99.90;;;;;;5188958;22;20012;-71
2022/02/19 02:49:02;;;;;;;9.57;2.22;;;7.00;99.90;;;;;;5189567;22;20334;-71
2022/02/19 02:51:05;;;;;;;11.57;2.10;;;6.90;99.90;;;;;;5187567;22;20010;-71
2022/02/19 02:53:05;;;;;;;11.02;2.42;;;6.90;99.90;;;;;;5188835;22;20012;-71
2022/02/19 02:55:08;;;;;;;13.05;2.60;;;6.90;99.90;;;;;;5185335;22;20038;-71
2022/02/19 02:57:09;;;;;;;14.70;2.63;;;6.90;99.90;;;;;;5161079;23;20438;-71
2022/02/19 02:59:09;;;;;;;8.73;1.75;;;6.90;99.90;;;;;;5189366;22;20011;-72
2022/02/19 03:01:10;;;;;;;6.88;2.17;;;6.90;99.90;;;;;;5159516;23;20034;-71
2022/02/19 03:03:11;;;;;;;13.43;2.30;;;6.90;99.90;;;;;;5185597;22;20015;-71
2022/02/19 03:05:13;;;;;;;7.03;2.00;;;6.80;99.90;;;;;;5160646;23;20082;-71
2022/02/19 03:07:14;;;;;;;16.35;2.65;;;6.90;99.90;;;;;;5188681;22;20023;-71
2022/02/19 03:09:14;;;;;;;11.88;2.30;;;6.80;99.90;;;;;;5161409;23;20012;-71
2022/02/19 03:11:15;;;;;;;11.57;2.15;;;6.80;99.90;;;;;;5185865;22;20012;-71
2022/02/19 03:13:15;;;;;;;6.63;2.08;;;6.80;99.90;;;;;;5189023;22;20039;-71
2022/02/19 03:15:21;;;;;;;11.20;2.45;;;6.80;99.90;;;;;;5184993;22;20042;-71
2022/02/19 03:17:22;;;;;;;9.05;2.03;;;6.80;99.90;;;;;;5186714;22;20563;-71
2022/02/19 03:19:22;;;;;;;13.93;2.40;;;6.80;99.90;;;;;;5189054;22;20066;-71
2022/02/19 03:21:26;;;;;;;6.40;2.40;;;6.70;99.90;;;;;;5184668;22;20046;-71
2022/02/19 03:23:27;;;;;;;11.45;2.40;;;6.70;99.90;;;;;;5188816;22;20360;-71
2022/02/19 03:25:28;;;;;;;9.85;2.25;;;6.70;99.90;;;;;;5188523;22;20016;-71
2022/02/19 03:27:28;;;;;;;9.35;2.20;;;6.70;99.90;;;;;;5189213;22;20015;-71
2022/02/19 03:29:29;;;;;;;8.80;1.75;;;6.70;99.90;;;;;;5187666;22;20031;-71
2022/02/19 03:31:30;;;;;;;12.82;2.75;;;6.80;99.90;;;;;;5188320;22;20095;-71
2022/02/19 03:33:31;;;;;;;14.63;2.47;;;6.70;99.90;;;;;;5186853;22;20550;-71
2022/02/19 03:35:33;;;;;;;8.37;2.17;;;6.70;99.90;;;;;;5188227;22;20011;-71
2022/02/19 03:37:35;;;;;;;12.65;1.90;;;6.70;99.90;;;;;;5189217;22;20621;-71
2022/02/19 03:39:36;;;;;;;9.75;1.77;;;6.70;99.90;;;;;;5188615;22;20015;-71
2022/02/19 03:41:37;;;;;;;6.70;2.00;;;6.70;99.90;;;;;;5186266;22;20445;-72
2022/02/19 03:43:37;;;;;;;7.00;1.52;;;6.70;99.90;;;;;;5188598;22;20243;-71
2022/02/19 03:45:41;;;;;;;7.40;1.95;;;6.70;99.90;;;;;;5189103;22;20307;-71
2022/02/19 03:47:43;;;;;;;8.55;1.70;;;6.70;99.90;;;;;;5189382;22;20019;-71
2022/02/19 03:49:44;;;;;;;9.23;2.50;;;6.70;99.90;;;;;;5189073;22;20461;-71
2022/02/19 03:51:45;;;;;;;9.38;1.92;;;6.70;99.90;;;;;;5185448;22;20007;-71
2022/02/19 03:53:45;;;;;;;6.22;1.63;;;6.70;99.90;;;;;;5187152;22;20318;-71
2022/02/19 03:55:46;;;;;;;9.90;2.00;;;6.70;99.90;;;;;;5187387;22;20016;-71
2022/02/19 03:57:46;;;;;;;9.02;2.22;;;6.70;99.90;;;;;;5185650;22;20091;-71
2022/02/19 03:59:47;;;;;;;11.07;2.60;;;6.70;99.90;;;;;;5186511;22;20468;-71
2022/02/19 04:01:48;;;;;;;7.95;2.00;;;6.70;99.90;;;;;;5185043;22;20011;-71
2022/02/19 04:03:48;;;;;;;9.43;1.80;;;6.70;99.90;;;;;;5187950;22;20030;-71
2022/02/19 04:05:49;;;;;;;10.75;1.85;;;6.70;99.90;;;;;;5185051;22;20011;-71
2022/02/19 04:07:50;;;;;;;11.60;2.08;;;6.70;99.90;;;;;;5189623;22;20102;-71
2022/02/19 04:09:50;;;;;;;11.05;2.30;;;6.70;99.90;;;;;;5186529;22;20085;-71
2022/02/19 04:11:51;;;;;;;11.10;2.28;;;6.80;99.90;;;;;;5185627;22;20335;-71
2022/02/19 04:13:51;;;;;;;12.02;2.13;;;6.70;99.90;;;;;;5189128;22;20424;-71
2022/02/19 04:15:52;;;;;;;11.65;2.00;;;6.80;99.90;;;;;;5172042;22;20030;-71
2022/02/19 04:17:53;;;;;;;10.68;2.15;;;6.80;99.90;;;;;;5189085;22;20003;-71
2022/02/19 04:19:53;;;;;;;8.00;1.80;;;6.80;99.90;;;;;;5186104;22;20008;-71
2022/02/19 04:21:54;;;;;;;6.85;1.80;;;6.70;99.90;;;;;;5187874;22;20008;-71
2022/02/19 04:23:54;;;;;;;10.10;2.15;;;6.80;99.90;;;;;;5188683;22;20030;-71
2022/02/19 04:25:55;;;;;;;10.88;2.13;;;6.80;99.90;;;;;;5150825;22;20079;-71
2022/02/19 04:28:04;;;;;;;9.05;1.98;;;6.70;99.90;;;;;;5189343;22;20131;-71
2022/02/19 04:30:06;;;;;;;9.70;2.20;;;6.70;99.90;;;;;;5187634;22;20020;-71
2022/02/19 04:32:08;;;;;;;9.77;2.00;;;6.70;99.90;;;;;;5185421;22;20445;-72
2022/02/19 04:34:08;;;;;;;7.63;1.87;;;6.70;99.90;;;;;;5187813;22;20345;-71
2022/02/19 04:36:09;;;;;;;8.50;2.42;;;6.70;99.90;;;;;;5188431;22;20202;-71
2022/02/19 04:38:10;;;;;;;6.72;1.77;;;6.70;99.90;;;;;;5188940;22;20472;-71
2022/02/19 04:40:13;;;;;;;9.43;2.47;;;6.70;99.90;;;;;;5188041;22;20031;-71
2022/02/19 04:42:14;;;;;;;7.43;2.00;;;6.70;99.90;;;;;;5185931;22;20034;-72
2022/02/19 04:44:15;;;;;;;10.13;2.25;;;6.70;99.90;;;;;;5187909;22;20019;-71
2022/02/19 04:46:16;;;;;;;9.32;2.08;;;6.70;99.90;;;;;;5170922;22;20449;-71
2022/02/19 04:48:16;;;;;;;11.52;2.58;;;6.70;99.90;;;;;;5188528;22;20020;-72
2022/02/19 04:50:17;;;;;;;13.95;2.30;;;6.70;99.90;;;;;;5187081;22;20087;-71
2022/02/19 04:52:18;;;;;;;11.35;2.22;;;6.70;99.90;;;;;;5184916;22;20018;-71
2022/02/19 04:54:18;;;;;;;9.45;2.30;;;6.60;99.90;;;;;;5186991;22;20016;-71
2022/02/19 04:56:19;;;;;;;14.40;2.25;;;6.70;99.90;;;;;;5187175;22;20445;-71
2022/02/19 04:58:20;;;;;;;8.98;2.97;;;6.60;99.90;;;;;;5188327;22;20042;-71
2022/02/19 05:00:20;;;;;;;10.77;2.22;;;6.60;99.90;;;;;;5184039;22;20012;-71
2022/02/19 05:02:21;;;;;;;5.50;1.50;;;6.60;99.90;;;;;;5187636;22;20023;-71
2022/02/19 05:04:22;;;;;;;13.52;2.08;;;6.60;99.90;;;;;;5184698;22;20007;-71
2022/02/19 05:06:23;;;;;;;9.32;1.83;;;6.60;99.90;;;;;;5186108;22;20053;-72
2022/02/19 05:08:23;;;;;;;7.03;1.77;;;6.50;99.90;;;;;;5185619;22;20339;-71
2022/02/19 05:10:24;;;;;;;9.65;2.08;;;6.50;99.90;;;;;;5187879;22;20020;-71
2022/02/19 05:12:25;;;;;;;10.10;2.17;;;6.50;99.90;;;;;;5187979;22;20400;-72
2022/02/19 05:14:25;;;;;;;10.40;3.08;;;6.40;99.90;;;;;;5171970;22;20109;-72
2022/02/19 05:16:26;;;;;;;9.50;2.28;;;6.40;99.90;;;;;;5185960;22;20039;-71
2022/02/19 05:18:26;;;;;;;5.78;1.40;;;6.30;99.90;;;;;;5187838;22;20180;-71
2022/02/19 05:20:27;;;;;;;5.57;1.85;;;6.30;99.90;;;;;;5187505;22;20471;-71
2022/02/19 05:22:28;;;;;;;7.95;2.30;;;6.30;99.90;;;;;;5187967;22;20511;-72
2022/02/19 05:24:29;;;;;;;8.52;1.92;;;6.30;99.90;;;;;;5186888;22;20019;-71
2022/02/19 05:26:32;;;;;;;12.00;2.08;;;6.30;99.90;;;;;;5186740;22;20011;-72
2022/02/19 05:28:33;;;;;;;7.35;2.03;;;6.20;99.90;;;;;;5186996;22;20011;-72
2022/02/19 05:30:35;;;;;;;12.23;2.42;;;6.10;99.90;;;;;;5155199;22;20020;-72
2022/02/19 05:32:36;;;;;;;9.88;2.15;;;6.10;99.90;;;;;;5192659;22;20011;-72
2022/02/19 05:34:37;;;;;;;12.18;2.08;;;6.10;99.90;;;;;;5186452;22;20109;-71
2022/02/19 05:36:37;;;;;;;13.38;2.42;;;6.10;99.90;;;;;;5187835;22;20402;-71
2022/02/19 05:38:38;;;;;;;9.70;1.80;;;6.10;99.90;;;;;;5185927;22;20061;-72
2022/02/19 05:40:39;;;;;;;10.02;2.17;;;6.10;99.90;;;;;;5184873;22;20111;-72
2022/02/19 05:42:39;;;;;;;9.27;2.08;;;6.10;99.90;;;;;;5187482;22;20353;-71
2022/02/19 05:44:40;;;;;;;16.05;2.40;;;6.00;99.90;;;;;;5187955;22;20019;-71
2022/02/19 05:46:40;;;;;;;11.95;2.20;;;6.00;99.90;;;;;;5187376;22;20011;-71
2022/02/19 05:48:41;;;;;;;9.93;2.05;;;6.00;99.90;;;;;;5188821;22;20083;-72
2022/02/19 05:50:44;;;;;;;7.13;1.90;;;5.90;99.90;;;;;;5187494;22;20469;-72
2022/02/19 05:52:45;;;;;;;12.32;2.45;;;5.90;99.90;;;;;;5160058;23;20004;-71
2022/02/19 05:54:46;;;;;;;9.10;2.33;;;5.80;99.90;;;;;;5187816;22;20012;-71
2022/02/19 05:56:46;;;;;;;13.88;2.30;;;5.80;99.90;;;;;;5159902;23;20012;-71
2022/02/19 05:58:47;;;;;;;15.95;2.75;;;5.60;99.90;;;;;;5188500;22;20007;-71
2022/02/19 06:00:48;;;;;;;9.90;2.42;;;5.60;99.90;;;;;;5188582;22;20054;-71
2022/02/19 06:02:49;;;;;;;13.77;2.72;;;5.50;99.90;;;;;;5187307;22;20039;-71
2022/02/19 06:04:49;;;;;;;11.27;2.30;;;5.50;99.90;;;;;;5189317;22;20016;-71
2022/02/19 06:06:50;;;;;;;11.50;2.53;;;5.50;99.90;;;;;;5190472;22;20016;-71
2022/02/19 06:08:50;;;;;;;15.25;2.45;;;5.50;99.90;;;;;;5191019;22;20032;-71
2022/02/19 06:10:51;;;;;;;11.60;2.55;;;5.50;99.90;;;;;;5187829;22;20087;-71
2022/02/19 06:12:52;;;;;;;10.23;2.03;;;5.50;99.90;;;;;;5191819;22;20078;-71
2022/02/19 06:14:52;;;;;;;17.90;2.80;;;5.40;99.90;;;;;;5188235;22;20011;-71
2022/02/19 06:16:53;;;;;;;12.40;2.13;;;5.40;99.90;;;;;;5191498;22;20345;-71
2022/02/19 06:18:54;;;;;;;7.80;2.15;;;5.30;99.90;;;;;;5191522;22;20437;-71
2022/02/19 06:20:54;;;;;;;11.35;2.20;;;5.40;99.90;;;;;;5190670;22;20015;-71
2022/02/19 06:22:55;;;;;;;13.15;2.53;;;5.40;99.90;;;;;;5189283;22;20011;-71
2022/02/19 06:24:55;;;;;;;18.33;3.25;;;5.30;99.90;;;;;;5191671;22;20087;-71
2022/02/19 06:26:56;;;;;;;13.18;2.40;;;5.30;99.90;;;;;;5190211;22;20015;-71
2022/02/19 06:28:56;;;;;;;11.40;2.30;;;5.30;99.90;;;;;;5191357;22;20065;-71
2022/02/19 06:30:57;;;;;;;10.02;2.17;;;5.40;99.90;;;;;;5190131;22;20008;-71
2022/02/19 06:32:58;;;;;;;9.88;1.90;;;5.40;99.90;;;;;;5186781;22;20043;-71
2022/02/19 06:34:58;;;;;;;14.30;2.75;;;5.50;99.90;;;;;;5188227;22;20090;-71
2022/02/19 06:36:59;;;;;;;11.95;2.28;;;5.40;99.90;;;;;;5190599;22;20019;-71
2022/02/19 06:39:00;;;;;;;7.07;2.08;;;5.50;99.90;;;;;;5190765;22;20065;-72
2022/02/19 06:41:00;;;;;;;14.25;2.42;;;5.50;99.90;;;;;;5189521;22;20019;-72
2022/02/19 06:43:01;;;;;;;13.63;2.53;;;5.50;99.90;;;;;;5201436;22;20019;-72
2022/02/19 06:45:03;;;;;;;8.45;2.00;;;5.50;99.90;;;;;;5188175;22;20012;-72
2022/02/19 06:47:04;;;;;;;10.05;2.15;;;5.50;99.90;;;;;;5187652;22;20012;-72
2022/02/19 06:49:04;;;;;;;10.30;2.42;;;5.60;99.90;;;;;;5215805;22;20316;-72
2022/02/19 06:51:05;;;;;;;9.43;2.20;;;5.60;99.90;;;;;;5214843;22;20068;-72
2022/02/19 06:53:06;;;;;;;12.93;2.20;;;5.60;99.90;;;;;;5215552;22;20015;-70
2022/02/19 06:55:07;;;;;;;10.93;2.47;;;5.60;99.90;;;;;;5187417;22;20359;-70
2022/02/19 06:57:13;;;;;;;12.35;2.40;;;5.60;99.90;;;;;;5214425;22;20014;-70
2022/02/19 06:59:14;;;;;;;9.40;1.98;;;5.60;99.90;;;;;;5214827;22;20026;-70
2022/02/19 07:01:15;;;;;;;9.52;2.03;;;5.70;99.90;;;;;;5214921;22;20015;-70
2022/02/19 07:03:15;;;;;;;10.65;2.42;;;5.60;99.90;;;;;;5215287;22;20027;-70
2022/02/19 07:05:16;;;;;;;11.50;2.53;;;5.60;99.90;;;;;;5186741;22;20465;-71
2022/02/19 07:07:17;;;;;;;8.63;1.70;;;5.60;99.90;;;;;;5215091;22;20011;-70
2022/02/19 07:09:17;;;;;;;11.05;2.40;;;5.60;99.90;;;;;;5215220;22;20031;-70
2022/02/19 07:11:18;;;;;;;5.32;1.92;;;5.60;99.90;;;;;;5214895;22;20015;-70
2022/02/19 07:13:18;;;;;;;12.95;2.28;;;5.60;99.90;;;;;;5215255;22;20019;-70
2022/02/19 07:15:20;;;;;;;19.45;2.30;;;5.60;99.90;;;;;;5187021;22;20091;-70
2022/02/19 07:17:21;;;;;;;7.53;2.17;;;5.70;99.90;;;;;;5214736;22;20038;-70
2022/02/19 07:19:21;;;;;;;16.27;2.60;;;5.70;99.90;;;;;;5214786;22;20043;-70
2022/02/19 07:21:22;;;;;;;7.97;2.05;;;5.70;99.90;;;;;;5214113;22;20090;-70
2022/02/19 07:23:23;;;;;;;14.35;2.83;;;5.70;99.90;;;;;;5187168;22;20012;-70
2022/02/19 07:25:23;;;;;;;10.75;2.42;;;5.70;99.90;;;;;;5186561;22;20248;-70
2022/02/19 07:27:24;;;;;;;11.35;2.35;;;5.60;99.90;;;;;;5188130;22;20031;-70
2022/02/19 07:29:25;;;;;;;9.07;1.52;;;5.70;99.90;;;;;;5216105;22;20042;-70
2022/02/19 07:31:25;;;;;;;7.70;1.77;;;5.70;99.90;;;;;;5187207;22;20476;-70
2022/02/19 07:33:26;;;;;;;10.45;2.22;;;5.70;99.90;;;;;;5187813;22;20015;-70
2022/02/19 07:35:26;;;;;;;9.30;2.20;;;5.80;99.90;;;;;;5186788;22;20533;-70
2022/02/19 07:37:27;;;;;;;10.25;2.38;;;5.90;99.90;;;;;;5187371;22;20012;-70
2022/02/19 07:39:28;;;;;;;12.43;2.72;;;5.90;99.90;;;;;;5215022;22;20016;-70
2022/02/19 07:41:28;;;;;;;9.30;2.28;;;5.90;99.90;;;;;;5182093;22;20030;-70
2022/02/19 07:43:29;;;;;;;9.73;2.20;;;5.90;99.90;;;;;;5215140;22;20023;-71
2022/02/19 07:45:29;;;;;;;11.77;2.58;;;5.80;99.90;;;;;;5213619;22;20496;-71
2022/02/19 07:47:32;;;;;;;12.23;2.55;;;5.90;99.90;;;;;;5213189;22;20042;-71
2022/02/19 07:58:50;;;;;;;11.95;2.33;;;6.10;99.90;;;;;;5213096;22;20072;-70
2022/02/19 08:00:57;;;;;;;15.80;2.42;;;6.20;99.90;;;;;;5185363;22;20046;-70
2022/02/19 08:02:57;;;;;;;20.67;2.85;;;6.20;99.90;;;;;;5160405;23;20032;-71
2022/02/19 08:04:58;;;;;;;15.38;2.25;;;6.10;99.90;;;;;;5214101;22;20018;-70
2022/02/19 08:06:58;;;;;;;11.38;2.13;;;6.10;99.90;;;;;;5171443;22;20072;-70
2022/02/19 08:08:59;;;;;;;9.63;1.95;;;6.10;99.90;;;;;;5214766;22;20018;-70
2022/02/19 08:11:00;;;;;;;12.73;2.80;;;6.10;99.90;;;;;;5185032;22;20015;-70
2022/02/19 08:13:02;;;;;;;15.80;2.58;;;6.10;99.90;;;;;;5214527;22;20317;-71
2022/02/19 08:15:03;;;;;;;9.00;2.08;;;6.40;99.90;;;;;;5214534;22;20023;-71
2022/02/19 08:17:04;;;;;;;9.07;1.90;;;6.60;99.90;;;;;;5213844;22;20394;-71
2022/02/19 08:19:04;;;;;;;12.73;2.30;;;6.90;99.90;;;;;;5214363;22;20015;-71
2022/02/19 08:21:05;;;;;;;11.60;2.50;;;7.20;99.90;;;;;;5185724;22;20384;-71
2022/02/19 08:23:07;;;;;;;14.95;3.05;;;7.40;99.90;;;;;;5186233;22;20380;-71
2022/02/19 08:25:08;;;;;;;13.37;2.37;;;7.50;99.90;;;;;;5213678;22;20012;-71
2022/02/19 08:27:09;;;;;;;13.10;2.45;;;7.70;99.90;;;;;;5213755;22;20446;-71
2022/02/19 08:29:09;;;;;;;8.80;2.28;;;7.80;99.90;;;;;;5185934;22;20085;-71
2022/02/19 08:31:10;;;;;;;11.10;2.17;;;8.10;99.90;;;;;;5185270;22;20424;-71
2022/02/19 08:33:11;;;;;;;6.90;1.45;;;8.40;99.90;;;;;;5185885;22;20011;-71
2022/02/19 08:35:11;;;;;;;10.02;1.95;;;8.70;99.90;;;;;;5211930;22;20018;-71
2022/02/19 08:37:12;;;;;;;7.55;2.10;;;8.70;99.90;;;;;;5215053;22;20083;-70
2022/02/19 08:39:13;;;;;;;9.30;2.20;;;8.70;99.90;;;;;;5214547;22;20455;-70
2022/02/19 08:41:13;;;;;;;12.18;2.35;;;8.50;99.90;;;;;;5214139;22;20023;-70
2022/02/19 08:43:14;;;;;;;10.55;2.58;;;8.50;99.90;;;;;;5186001;22;20024;-70
2022/02/19 08:45:15;;;;;;;7.55;1.95;;;8.60;99.90;;;;;;5186223;22;20484;-70
2022/02/19 08:47:16;;;;;;;11.80;2.83;;;8.90;99.90;;;;;;5214291;22;20094;-70
2022/02/19 08:49:16;;;;;;;11.63;2.20;;;8.90;99.90;;;;;;5186734;22;20012;-70
2022/02/19 08:51:17;;;;;;;8.77;2.47;;;8.90;99.90;;;;;;5213247;22;20007;-70
2022/02/19 08:53:21;;;;;;;9.70;2.15;;;9.00;99.90;;;;;;5213277;22;20019;-71
2022/02/19 08:55:22;;;;;;;7.88;2.25;;;9.10;99.90;;;;;;5160328;23;20057;-71
2022/02/19 08:57:22;;;;;;;12.07;3.10;;;9.40;99.90;;;;;;5186385;22;20038;-71
2022/02/19 08:59:23;;;;;;;6.75;2.45;;;9.20;99.90;;;;;;5186009;22;20019;-71
2022/02/19 09:01:28;;;;;;;11.52;2.38;;;9.40;99.90;;;;;;5130333;23;20005;-70
2022/02/19 09:03:29;;;;;;;8.35;1.98;;;9.10;99.90;;;;;;5175320;22;20043;-70
2022/02/19 09:05:30;;;;;;;10.23;2.67;;;9.20;99.90;;;;;;5213690;22;20336;-71
2022/02/19 09:07:34;;;;;;;9.95;2.47;;;9.20;99.90;;;;;;5214405;22;20019;-70
2022/02/19 09:09:36;;;;;;;10.60;2.58;;;9.10;99.90;;;;;;5186360;22;20087;-70
2022/02/19 09:11:37;;;;;;;11.32;2.65;;;9.10;99.90;;;;;;5185642;22;20007;-71
2022/02/19 09:13:38;;;;;;;13.23;2.65;;;9.10;99.90;;;;;;5213357;22;20349;-71
2022/02/19 09:15:38;;;;;;;8.88;2.58;;;9.10;99.90;;;;;;5212979;22;20157;-71
2022/02/19 09:17:39;;;;;;;9.73;2.80;;;9.20;99.90;;;;;;5213675;22;20393;-71
2022/02/19 09:19:40;;;;;;;12.73;2.60;;;9.30;99.90;;;;;;5186491;22;20079;-71
2022/02/19 09:21:43;;;;;;;9.50;2.60;;;9.30;99.90;;;;;;5212397;22;20018;-70
2022/02/19 09:23:44;;;;;;;13.07;2.80;;;9.40;99.90;;;;;;5185950;22;20022;-71
2022/02/19 09:25:44;;;;;;;8.32;2.50;;;9.30;99.90;;;;;;5213355;22;20340;-70
2022/02/19 09:27:45;;;;;;;8.45;2.40;;;9.30;99.90;;;;;;5214148;22;20011;-71
2022/02/19 09:29:45;;;;;;;9.85;2.50;;;9.30;99.90;;;;;;5185803;22;20018;-71
2022/02/19 09:31:46;;;;;;;7.45;2.45;;;9.30;99.90;;;;;;5213070;22;20014;-70
2022/02/19 09:33:48;;;;;;;7.82;2.30;;;9.10;99.90;;;;;;5185498;22;20079;-71
2022/02/19 09:35:48;;;;;;;9.00;2.42;;;8.90;99.90;;;;;;5213294;22;20117;-71
2022/02/19 09:37:49;;;;;;;15.20;2.88;;;8.90;99.90;;;;;;5214025;22;20011;-70
2022/02/19 09:39:50;;;;;;;19.23;2.90;;;8.70;99.90;;;;;;5160888;23;20460;-70
2022/02/19 09:41:51;;;;;;;14.45;2.92;;;8.60;99.90;;;;;;5212817;22;20008;-70
2022/02/19 09:43:52;;;;;;;10.02;2.22;;;8.60;99.90;;;;;;5184476;22;20094;-70
2022/02/19 09:45:53;;;;;;;12.63;2.72;;;8.60;99.90;;;;;;5212769;22;20007;-70
2022/02/19 09:47:58;;;;;;;6.75;2.15;;;8.60;99.90;;;;;;5185471;22;20383;-70
2022/02/19 09:49:59;;;;;;;11.35;2.72;;;8.60;99.90;;;;;;5185269;22;20011;-70
2022/02/19 09:52:00;;;;;;;11.40;2.55;;;8.60;99.90;;;;;;5185652;22;20012;-70
2022/02/19 09:54:01;;;;;;;13.05;2.33;;;8.60;99.90;;;;;;5213562;22;20452;-71
2022/02/19 09:56:01;;;;;;;15.18;3.20;;;8.70;99.90;;;;;;5185882;22;20004;-70
2022/02/19 09:58:02;;;;;;;8.95;2.22;;;8.60;99.90;;;;;;5213442;22;20013;-70
2022/02/19 10:00:04;;;;;;;12.48;2.35;;;8.60;99.90;;;;;;5213561;22;20412;-70
2022/02/19 10:02:09;;;;;;;11.93;3.00;;;8.60;99.90;;;;;;5213241;22;20030;-70
2022/02/19 10:04:11;;;;;;;10.80;2.78;;;8.70;99.90;;;;;;5160267;23;20231;-70
2022/02/19 10:06:13;;;;;;;8.77;2.47;;;8.70;99.90;;;;;;5185438;22;20440;-70
2022/02/19 10:08:14;;;;;;;11.48;2.30;;;8.70;99.90;;;;;;5213315;22;20257;-70
2022/02/19 10:10:25;;;;;;;10.23;1.88;;;8.80;99.90;;;;;;5213101;22;20015;-70
2022/02/19 10:12:42;;;;;;;10.50;2.40;;;8.90;99.90;;;;;;5212600;22;20033;-70
2022/02/19 10:14:44;;;;;;;10.43;2.45;;;8.90;99.90;;;;;;5212542;22;20053;-70
2022/02/19 10:17:07;;;;;;;11.82;2.80;;;8.80;99.90;;;;;;5185266;22;20098;-70
2022/02/19 10:19:08;;;;;;;;;;;8.70;99.90;;;;;;5213504;22;20011;-70
2022/02/19 10:21:15;;;;;;;12.02;2.10;;;8.60;99.90;;;;;;5212320;22;19903;-70
2022/02/19 10:23:15;;;;;;;10.65;2.38;;;8.50;99.90;;;;;;5212388;22;20058;-70
2022/02/19 10:25:21;;;;;;;13.68;2.47;;;8.50;99.90;;;;;;5212579;22;20391;-70
2022/02/19 10:27:22;;;;;;;8.35;2.25;;;8.50;99.90;;;;;;5185010;22;20011;-70
2022/02/19 10:29:23;;;;;;;11.48;2.85;;;8.50;99.90;;;;;;5186203;22;20081;-70
2022/02/19 10:31:23;;;;;;;13.05;2.65;;;8.60;99.90;;;;;;5212413;22;20026;-70
2022/02/19 10:33:25;;;;;;;6.32;1.92;;;8.50;99.90;;;;;;5213095;22;20034;-70
2022/02/19 10:35:41;;;;;;;11.77;2.28;;;8.50;99.90;;;;;;5212165;22;20090;-70
2022/02/19 10:37:50;;;;;;;9.63;2.20;;;8.50;99.90;;;;;;5185887;22;20004;-70
2022/02/19 10:39:52;;;;;;;8.68;2.72;;;8.60;99.90;;;;;;5213165;22;20018;-70
2022/02/19 10:41:55;;;;;;;6.43;2.05;;;8.60;99.90;;;;;;5212363;22;20026;-70
2022/02/19 10:43:55;;;;;;;16.98;2.95;;;8.60;99.90;;;;;;5184743;22;20027;-70